Time;durP1;ratioP1;P1;durP2;ratioP2;P2;SDS_P1;SDS_P2;PMS_P1;PMS_P2;Temp;Humidity;BMP_temperature;BMP_pressure;BME280_temperature;BME280_humidity;BME280_pressure;Samples;Min_cycle;Max_cycle;Signal;HPM_P1;HPM_P2
2021/05/22 00:00:07;85144.00;0.28;147.92;0.00;0.00;0.62;;;;;14.70;1.00;;;;;;2272172;61;1405;-89
2021/05/22 00:02:34;104753.00;0.35;181.78;0.00;0.00;0.62;;;;;14.50;1.00;;;;;;2271810;61;1201;-88
2021/05/22 00:05:00;287812.00;0.96;496.97;0.00;0.00;0.62;;;;;14.70;1.00;;;;;;2271953;61;1155;-86
2021/05/22 00:07:27;84263.00;0.28;146.40;0.00;0.00;0.62;;;;;14.10;1.00;;;;;;2272285;61;1045;-88
2021/05/22 00:09:53;177557.00;0.59;307.28;0.00;0.00;0.62;;;;;13.90;1.00;;;;;;2265056;61;1448;-88
2021/05/22 00:12:20;128418.00;0.43;222.60;0.00;0.00;0.62;;;;;13.60;1.00;;;;;;2272039;61;1132;-88
2021/05/22 00:14:47;264704.00;0.88;457.24;47487.00;0.16;82.84;;;;;13.60;1.00;;;;;;2272058;61;2013;-88
2021/05/22 00:17:14;134277.00;0.45;232.70;0.00;0.00;0.62;;;;;13.50;1.00;;;;;;2272235;61;1143;-86
2021/05/22 00:19:40;311756.00;1.04;538.13;0.00;0.00;0.62;;;;;13.70;1.00;;;;;;2272062;61;1418;-87
2021/05/22 00:22:07;261119.00;0.87;451.07;0.00;0.00;0.62;;;;;13.70;1.00;;;;;;2272250;61;1098;-87
2021/05/22 00:24:33;201335.00;0.67;348.22;0.00;0.00;0.62;;;;;13.20;1.00;;;;;;2272236;61;1006;-87
2021/05/22 00:27:01;275891.00;0.92;476.47;20769.00;0.07;36.60;;;;;13.10;1.00;;;;;;2272322;61;1072;-85
2021/05/22 00:29:28;235946.00;0.79;407.78;0.00;0.00;0.62;;;;;13.30;1.00;;;;;;2272059;61;1511;-85
2021/05/22 00:32:01;191370.00;0.64;331.07;0.00;0.00;0.62;;;;;13.30;1.00;;;;;;2272306;61;1403;-88
2021/05/22 00:34:35;304145.00;1.01;525.05;0.00;0.00;0.62;;;;;13.00;1.00;;;;;;2272219;61;1428;-87
2021/05/22 00:37:01;280215.00;0.93;483.91;0.00;0.00;0.62;;;;;13.20;1.00;;;;;;2272148;61;1582;-86
2021/05/22 00:42:14;144513.00;0.48;250.35;0.00;0.00;0.62;;;;;13.20;1.00;;;;;;2269938;61;1076;-88
2021/05/22 00:45:02;228077.00;0.76;394.24;0.00;0.00;0.62;;;;;13.50;1.00;;;;;;2272069;61;1678;-88
2021/05/22 00:47:29;341848.00;1.14;589.85;0.00;0.00;0.62;;;;;13.60;1.00;;;;;;2271981;61;1409;-87
2021/05/22 00:49:56;116599.00;0.39;202.22;0.00;0.00;0.62;;;;;13.50;1.00;;;;;;2272069;61;1407;-85
2021/05/22 00:52:23;264302.00;0.88;456.55;0.00;0.00;0.62;;;;;13.30;1.00;;;;;;2272229;61;1053;-87
2021/05/22 00:54:50;350191.00;1.17;604.19;9827.00;0.03;17.65;;;;;13.30;1.00;;;;;;2271993;61;1985;-85
2021/05/22 00:57:21;376498.00;1.25;649.41;0.00;0.00;0.62;;;;;13.40;1.00;;;;;;2272129;61;1143;-87
2021/05/22 00:59:47;289443.00;0.96;499.77;12208.00;0.04;21.77;;;;;13.50;1.00;;;;;;2271985;61;1754;-88
2021/05/22 01:02:22;151343.00;0.50;262.12;0.00;0.00;0.62;;;;;13.40;1.00;;;;;;2272069;61;1140;-87
2021/05/22 01:07:40;472582.00;1.58;814.63;0.00;0.00;0.62;;;;;13.60;1.00;;;;;;2271175;61;1121;-86
2021/05/22 01:10:08;240752.00;0.80;416.04;0.00;0.00;0.62;;;;;14.00;1.00;;;;;;2272109;61;1407;-87
2021/05/22 01:12:39;384334.00;1.28;662.88;0.00;0.00;0.62;;;;;14.00;1.00;;;;;;2272031;61;1438;-86
2021/05/22 01:15:08;220801.00;0.74;381.72;0.00;0.00;0.62;;;;;13.60;1.00;;;;;;2272034;61;1982;-87
2021/05/22 01:17:39;318096.00;1.06;549.03;0.00;0.00;0.62;;;;;13.50;1.00;;;;;;2272105;61;978;-86
2021/05/22 01:20:20;176163.00;0.59;304.88;0.00;0.00;0.62;;;;;13.70;1.00;;;;;;2272074;61;1437;-86
2021/05/22 01:22:50;273305.00;0.91;472.03;0.00;0.00;0.62;;;;;13.80;1.00;;;;;;2272056;61;1584;-86
2021/05/22 01:25:24;188594.00;0.63;326.29;0.00;0.00;0.62;;;;;13.80;1.00;;;;;;2272080;61;898;-88
2021/05/22 01:27:51;145163.00;0.48;251.47;0.00;0.00;0.62;;;;;13.80;1.00;;;;;;2272035;61;1039;-87
2021/05/22 01:30:18;296931.00;0.99;512.64;0.00;0.00;0.62;;;;;13.80;1.00;;;;;;2272259;61;1690;-88
2021/05/22 01:32:45;313258.00;1.04;540.71;13037.00;0.04;23.21;;;;;13.70;1.00;;;;;;2272746;61;1053;-88
2021/05/22 01:35:12;220818.00;0.74;381.75;0.00;0.00;0.62;;;;;13.40;1.00;;;;;;2272698;61;1907;-85
2021/05/22 01:37:39;210859.00;0.70;364.61;0.00;0.00;0.62;;;;;13.20;1.00;;;;;;2272766;61;1003;-88
2021/05/22 01:40:07;148828.00;0.50;257.79;0.00;0.00;0.62;;;;;13.60;1.00;;;;;;2272668;61;1778;-86
2021/05/22 01:42:34;301361.00;1.00;520.26;52787.00;0.18;92.01;;;;;13.60;1.00;;;;;;2272654;61;922;-87
2021/05/22 01:45:04;204216.00;0.68;353.18;16964.00;0.06;30.01;;;;;13.70;1.00;;;;;;2272559;61;1124;-87
2021/05/22 01:47:34;155577.00;0.52;269.42;0.00;0.00;0.62;;;;;13.50;1.00;;;;;;2265438;61;1140;-86
2021/05/22 01:50:04;366956.00;1.22;633.00;95608.00;0.32;165.99;;;;;13.20;1.00;;;;;;2272707;61;1457;-84
2021/05/22 01:52:34;391950.00;1.31;675.97;73260.00;0.24;127.39;;;;;13.40;1.00;;;;;;2272469;61;1199;-88
2021/05/22 01:55:03;193592.00;0.65;334.89;0.00;0.00;0.62;;;;;13.40;1.00;;;;;;2272406;61;1918;-88
2021/05/22 01:57:33;123145.00;0.41;213.51;0.00;0.00;0.62;;;;;13.70;1.00;;;;;;2265270;61;1145;-87
2021/05/22 02:00:01;349698.00;1.17;603.34;32000.00;0.11;56.04;;;;;13.60;1.00;;;;;;2272391;61;1446;-88
2021/05/22 02:02:27;303030.00;1.01;523.13;75585.00;0.25;131.41;;;;;13.50;1.00;;;;;;2272393;61;1208;-89
2021/05/22 02:04:57;334074.00;1.11;576.49;89260.00;0.30;155.03;;;;;13.20;1.00;;;;;;2272365;61;1200;-88
2021/05/22 02:07:27;183218.00;0.61;317.03;0.00;0.00;0.62;;;;;13.20;1.00;;;;;;2262012;61;960;-88
2021/05/22 02:09:55;171825.00;0.57;297.41;0.00;0.00;0.62;;;;;13.30;1.00;;;;;;2272445;61;1353;-88
2021/05/22 02:12:23;197790.00;0.66;342.12;0.00;0.00;0.62;;;;;13.10;1.00;;;;;;2272541;61;1033;-87
2021/05/22 02:14:53;473728.00;1.58;816.60;75422.00;0.25;131.13;;;;;13.30;1.00;;;;;;2272533;61;2057;-86
2021/05/22 02:17:23;147397.00;0.49;255.32;0.00;0.00;0.62;;;;;13.20;1.00;;;;;;2272016;61;1597;-88
2021/05/22 02:19:53;144468.00;0.48;250.27;0.00;0.00;0.62;;;;;13.20;1.00;;;;;;2265223;61;1443;-87
2021/05/22 02:22:22;276367.00;0.92;477.29;0.00;0.00;0.62;;;;;13.60;1.00;;;;;;2265246;61;1085;-87
2021/05/22 02:24:50;325944.00;1.09;562.51;85948.00;0.29;149.31;;;;;13.60;1.00;;;;;;2272319;61;963;-88
2021/05/22 02:27:18;364529.00;1.22;628.83;79768.00;0.27;138.64;;;;;13.40;1.00;;;;;;2264844;61;1275;-86
2021/05/22 02:29:46;496124.00;1.65;855.15;171961.00;0.57;297.64;;;;;13.20;1.00;;;;;;2272162;61;1333;-88
2021/05/22 02:32:14;363492.00;1.21;627.05;81648.00;0.27;141.88;;;;;13.00;1.00;;;;;;2259685;61;1056;-88
2021/05/22 02:34:48;391429.00;1.30;675.07;84998.00;0.28;147.67;;;;;13.30;1.00;;;;;;2259817;61;2003;-85
2021/05/22 02:37:19;320986.00;1.07;553.99;96597.00;0.32;167.70;;;;;13.30;1.00;;;;;;2260057;61;1060;-87
2021/05/22 02:39:50;707865.00;2.36;1220.88;152012.00;0.51;263.27;;;;;13.40;1.00;;;;;;2256682;61;1333;-85
2021/05/22 02:42:18;385532.00;1.29;664.93;87841.00;0.29;152.58;;;;;13.50;1.00;;;;;;2259794;61;996;-84
2021/05/22 02:44:47;466769.00;1.56;804.63;82219.00;0.27;142.87;;;;;13.70;1.00;;;;;;2260084;61;1052;-85
2021/05/22 02:47:15;332420.00;1.11;573.65;78513.00;0.26;136.47;;;;;13.60;1.00;;;;;;2259965;61;1038;-86
2021/05/22 02:49:45;488110.00;1.63;841.36;112968.00;0.38;195.95;;;;;13.30;1.00;;;;;;2263455;61;1722;-84
2021/05/22 02:52:16;315805.00;1.05;545.09;80234.00;0.27;139.44;;;;;13.20;1.00;;;;;;2268530;61;1058;-87
2021/05/22 02:54:44;380234.00;1.27;655.83;83686.00;0.28;145.40;;;;;13.20;1.00;;;;;;2272467;61;2010;-87
2021/05/22 02:57:13;369591.00;1.23;637.53;81319.00;0.27;141.32;;;;;13.20;1.00;;;;;;2272342;61;1071;-86
2021/05/22 02:59:41;396603.00;1.32;683.97;81648.00;0.27;141.88;;;;;13.30;1.00;;;;;;2263599;61;1419;-87
2021/05/22 03:02:09;435828.00;1.45;751.41;103854.00;0.35;180.22;;;;;13.00;1.00;;;;;;2263872;61;1158;-87
2021/05/22 03:04:36;615297.00;2.05;1060.64;162888.00;0.54;282.02;;;;;13.30;1.00;;;;;;2255820;61;1025;-88
2021/05/22 03:07:04;577770.00;1.93;995.85;81786.00;0.27;142.12;;;;;13.40;1.00;;;;;;2255414;61;1103;-88
2021/05/22 03:09:31;361825.00;1.21;624.19;69016.00;0.23;120.06;;;;;13.30;1.00;;;;;;2255321;61;1273;-88
2021/05/22 03:11:57;426201.00;1.42;734.85;76561.00;0.26;133.10;;;;;13.00;1.00;;;;;;2248926;61;1181;-88
2021/05/22 03:14:24;340882.00;1.14;588.19;91580.00;0.31;159.04;;;;;13.10;1.00;;;;;;2252290;61;1121;-88
2021/05/22 03:16:50;385730.00;1.29;665.27;52089.00;0.17;90.80;;;;;12.90;1.00;;;;;;2256166;61;1999;-87
2021/05/22 03:19:17;428822.00;1.43;739.36;78988.00;0.26;137.29;;;;;12.80;1.00;;;;;;2259543;61;1396;-88
2021/05/22 03:21:43;833649.00;2.78;1439.87;203783.00;0.68;352.44;;;;;13.10;1.00;;;;;;2255938;61;1232;-86
2021/05/22 03:24:12;443484.00;1.48;764.57;88718.00;0.30;154.09;;;;;13.30;1.00;;;;;;2255819;61;1133;-88
2021/05/22 03:26:39;426730.00;1.42;735.76;81392.00;0.27;141.44;;;;;13.00;1.00;;;;;;2260914;61;1168;-87
2021/05/22 03:29:05;383608.00;1.28;661.63;79247.00;0.26;137.74;;;;;12.80;1.00;;;;;;2272166;61;1396;-85
2021/05/22 03:31:32;381603.00;1.27;658.18;79334.00;0.26;137.89;;;;;13.00;1.00;;;;;;2271984;61;1140;-85
2021/05/22 03:33:58;332607.00;1.11;573.97;82447.00;0.27;143.26;;;;;13.20;1.00;;;;;;2272170;61;1144;-87
2021/05/22 03:36:24;324488.00;1.08;560.01;81069.00;0.27;140.88;;;;;13.30;1.00;;;;;;2271838;61;1990;-89
2021/05/22 03:38:51;461610.00;1.54;795.75;81516.00;0.27;141.66;;;;;13.10;1.00;;;;;;2272211;61;1366;-88
2021/05/22 03:41:18;328024.00;1.09;566.09;83945.00;0.28;145.85;;;;;13.10;1.00;;;;;;2272267;61;951;-86
2021/05/22 03:43:45;374633.00;1.25;646.20;84438.00;0.28;146.70;;;;;13.40;1.00;;;;;;2265162;61;975;-83
2021/05/22 03:46:11;421982.00;1.41;727.60;81285.00;0.27;141.26;;;;;13.50;1.00;;;;;;2272263;61;979;-85
2021/05/22 03:48:38;407450.00;1.36;702.61;90067.00;0.30;156.42;;;;;13.50;1.00;;;;;;2265145;61;1349;-86
2021/05/22 03:51:05;379973.00;1.27;655.38;80456.00;0.27;139.82;;;;;13.30;1.00;;;;;;2272223;61;982;-84
2021/05/22 03:53:31;423459.00;1.41;730.14;82576.00;0.28;143.49;;;;;13.30;1.00;;;;;;2268390;61;1049;-85
2021/05/22 03:55:58;586841.00;1.96;1011.50;76730.00;0.26;133.39;;;;;13.40;1.00;;;;;;2263630;61;1999;-86
2021/05/22 03:58:28;477968.00;1.59;823.90;85165.00;0.28;147.96;;;;;13.40;1.00;;;;;;2263729;61;1028;-84
2021/05/22 04:00:54;468555.00;1.56;807.70;74357.00;0.25;129.29;;;;;13.30;1.00;;;;;;2260227;61;972;-86
2021/05/22 04:03:21;473280.00;1.58;815.83;86671.00;0.29;150.56;;;;;13.60;1.00;;;;;;2263577;61;1129;-85
2021/05/22 04:05:48;445583.00;1.49;768.19;56619.00;0.19;98.63;;;;;13.70;1.00;;;;;;2263730;61;981;-85
2021/05/22 04:08:14;327404.00;1.09;565.02;79333.00;0.26;137.89;;;;;13.80;1.00;;;;;;2255570;61;986;-85
2021/05/22 04:10:41;325131.00;1.08;561.12;83209.00;0.28;144.58;;;;;14.10;1.00;;;;;;2255619;61;1363;-86
2021/05/22 04:13:07;711789.00;2.37;1227.69;180838.00;0.60;312.93;;;;;14.20;1.00;;;;;;2244192;62;1205;-87
2021/05/22 04:15:38;357764.00;1.19;617.21;61470.00;0.20;107.02;;;;;14.00;1.00;;;;;;2241007;61;1915;-88
2021/05/22 04:18:05;417222.00;1.39;719.41;75726.00;0.25;131.65;;;;;14.20;1.00;;;;;;2247650;61;1112;-87
2021/05/22 04:20:31;409186.00;1.36;705.60;88303.00;0.29;153.38;;;;;14.40;1.00;;;;;;2248167;61;1457;-88
2021/05/22 04:22:58;388483.00;1.29;670.01;79316.00;0.26;137.86;;;;;14.40;1.00;;;;;;2251612;61;1786;-89
2021/05/22 04:25:24;366485.00;1.22;632.20;81410.00;0.27;141.47;;;;;14.30;1.00;;;;;;2253171;61;1087;-88
2021/05/22 04:27:51;574453.00;1.91;990.13;54235.00;0.18;94.51;;;;;14.10;1.00;;;;;;2263104;61;1133;-88
2021/05/22 04:30:18;293446.00;0.98;506.65;75733.00;0.25;131.67;;;;;14.20;1.00;;;;;;2253265;61;1480;-88
2021/05/22 04:32:46;421081.00;1.40;726.05;76876.00;0.26;133.64;;;;;14.10;1.00;;;;;;2263197;61;1758;-88
2021/05/22 04:35:19;479153.00;1.60;825.94;91937.00;0.31;159.65;;;;;14.20;1.00;;;;;;2253446;61;2001;-85
2021/05/22 04:37:52;464087.00;1.55;800.02;99034.00;0.33;171.90;;;;;14.50;1.00;;;;;;2268527;61;1025;-86
2021/05/22 04:40:18;342905.00;1.14;591.67;87584.00;0.29;152.14;;;;;14.90;1.00;;;;;;2272041;61;1321;-87
2021/05/22 04:42:54;313222.00;1.04;540.65;76120.00;0.25;132.33;;;;;14.90;1.00;;;;;;2272098;61;930;-86
2021/05/22 04:45:20;863522.00;2.88;1492.14;91139.00;0.30;158.27;;;;;14.90;1.00;;;;;;2272065;61;1069;-85
2021/05/22 04:47:49;707487.00;2.36;1220.22;92377.00;0.31;160.41;;;;;15.10;1.00;;;;;;2272072;61;1056;-86
2021/05/22 04:50:19;883976.00;2.95;1527.99;98936.00;0.33;171.74;;;;;15.20;1.00;;;;;;2271985;61;1379;-86
2021/05/22 04:52:46;947076.00;3.16;1638.96;89427.00;0.30;155.32;;;;;15.10;1.00;;;;;;2272081;61;1009;-87
2021/05/22 04:55:14;1293483.00;4.31;2260.18;0.00;0.00;0.62;;;;;15.10;1.00;;;;;;2271936;61;1916;-88
2021/05/22 04:57:41;1001104.00;3.34;1734.43;129428.00;0.43;224.34;;;;;15.30;1.00;;;;;;2271439;61;1189;-88
2021/05/22 05:00:10;807943.00;2.69;1394.98;112261.00;0.37;194.73;;;;;15.50;1.00;;;;;;2271963;61;1436;-87
2021/05/22 05:02:37;816809.00;2.72;1410.45;90386.00;0.30;156.97;;;;;15.40;1.00;;;;;;2272043;61;1000;-87
2021/05/22 05:05:06;834972.00;2.78;1442.18;95860.00;0.32;166.43;;;;;15.40;1.00;;;;;;2272093;61;1692;-89
2021/05/22 05:07:32;733751.00;2.45;1265.82;58154.00;0.19;101.29;;;;;15.40;1.00;;;;;;2264056;61;1044;-87
2021/05/22 05:09:59;599548.00;2.00;1033.44;32084.00;0.11;56.19;;;;;15.60;1.00;;;;;;2264133;61;1397;-87
2021/05/22 05:12:25;238761.00;0.80;412.62;0.00;0.00;0.62;;;;;15.70;1.00;;;;;;2263978;61;1191;-88
2021/05/22 05:14:58;388617.00;1.30;670.24;85124.00;0.28;147.89;;;;;15.80;1.00;;;;;;2263403;61;1164;-89
2021/05/22 05:17:24;957306.00;3.19;1657.00;170641.00;0.57;295.37;;;;;15.80;1.00;;;;;;2257518;61;1073;-86
2021/05/22 05:19:59;766046.00;2.55;1321.97;96507.00;0.32;167.54;;;;;15.70;1.00;;;;;;2255659;61;1432;-89
2021/05/22 05:22:30;543148.00;1.81;936.15;33599.00;0.11;58.81;;;;;15.60;1.00;;;;;;2255359;61;1173;-87
2021/05/22 05:24:57;870159.00;2.90;1503.77;46764.00;0.16;81.59;;;;;15.40;1.00;;;;;;2256576;61;965;-87
2021/05/22 05:27:23;850296.00;2.83;1468.99;12392.00;0.04;22.09;;;;;15.10;1.00;;;;;;2260036;61;1086;-89
2021/05/22 05:29:59;1074999.00;3.58;1865.77;79334.00;0.26;137.89;;;;;15.30;1.00;;;;;;2259746;61;1383;-89
2021/05/22 05:32:27;1270046.00;4.23;2217.39;15636.00;0.05;27.71;;;;;15.40;1.00;;;;;;2251127;61;1149;-89
2021/05/22 05:35:01;941459.00;3.14;1629.06;54942.00;0.18;95.73;;;;;15.30;1.00;;;;;;2263702;61;1191;-89
2021/05/22 05:37:29;471797.00;1.57;813.28;0.00;0.00;0.62;;;;;15.60;1.00;;;;;;2263617;61;1077;-87
2021/05/22 05:39:55;406842.00;1.36;701.57;0.00;0.00;0.62;;;;;16.50;1.00;;;;;;2263610;61;1301;-88
2021/05/22 05:42:22;501633.00;1.67;864.64;20311.00;0.07;35.81;;;;;18.30;1.00;;;;;;2262607;61;1221;-88
2021/05/22 05:44:48;846327.00;2.82;1462.04;133138.00;0.44;230.74;;;;;19.10;1.00;;;;;;2268776;61;1706;-88
2021/05/22 05:47:14;312535.00;1.04;539.47;0.00;0.00;0.62;;;;;19.80;1.00;;;;;;2263607;61;1208;-89
2021/05/22 05:49:44;347068.00;1.16;598.82;0.00;0.00;0.62;;;;;20.50;1.00;;;;;;2263461;61;1353;-89
2021/05/22 05:52:10;283400.00;0.94;489.38;0.00;0.00;0.62;;;;;21.40;1.00;;;;;;2270865;61;1155;-90
2021/05/22 05:54:38;334626.00;1.12;577.44;0.00;0.00;0.62;;;;;21.30;1.00;;;;;;2271029;61;1154;-86
2021/05/22 05:57:07;722838.00;2.41;1246.87;62798.00;0.21;109.31;;;;;22.10;1.00;;;;;;2271797;61;2031;-88
2021/05/22 05:59:44;843957.00;2.81;1457.90;79791.00;0.27;138.68;;;;;22.30;1.00;;;;;;2270982;61;1786;-88
2021/05/22 06:02:10;892060.00;2.97;1542.18;41008.00;0.14;71.63;;;;;22.00;1.00;;;;;;2270520;61;1141;-89
2021/05/22 06:04:37;1065236.00;3.55;1848.36;86900.00;0.29;150.95;;;;;21.60;1.00;;;;;;2271966;61;1148;-88
2021/05/22 06:07:12;516379.00;1.72;890.03;68565.00;0.23;119.28;;;;;20.80;1.00;;;;;;2272284;61;1169;-89
2021/05/22 06:09:44;322275.00;1.07;556.21;0.00;0.00;0.62;;;;;21.40;1.00;;;;;;2271364;61;1478;-88
2021/05/22 06:12:13;605493.00;2.02;1043.71;20395.00;0.07;35.95;;;;;20.90;1.00;;;;;;2271406;61;1288;-88
2021/05/22 06:14:48;890815.00;2.97;1539.99;71376.00;0.24;124.14;;;;;19.50;1.00;;;;;;2272583;61;1068;-88
2021/05/22 06:17:14;959127.00;3.20;1660.21;31422.00;0.10;55.04;;;;;18.50;1.00;;;;;;2272348;61;2009;-88
2021/05/22 06:19:41;774974.00;2.58;1337.51;11633.00;0.04;20.78;;;;;18.00;1.00;;;;;;2265008;61;1422;-89
2021/05/22 06:22:07;791323.00;2.64;1366.00;110997.00;0.37;192.55;;;;;18.10;1.00;;;;;;2271296;61;1137;-88
2021/05/22 06:24:34;783103.00;2.61;1351.67;121813.00;0.41;211.21;;;;;18.10;1.00;;;;;;2271566;61;1116;-88
2021/05/22 06:27:03;1337005.00;4.46;2339.99;155876.00;0.52;269.93;;;;;17.90;1.00;;;;;;2271438;61;1100;-88
2021/05/22 06:29:29;119684928.00;398.95;69449584.00;91233.00;0.30;158.44;;;;;17.10;1.00;;;;;;2271401;61;1341;-88
2021/05/22 06:31:56;659975.00;2.20;1137.90;102275.00;0.34;177.50;;;;;17.20;1.00;;;;;;2272210;61;1191;-88
2021/05/22 06:34:22;444891.00;1.48;766.99;72274.00;0.24;125.69;;;;;17.70;1.00;;;;;;2272008;61;936;-89
2021/05/22 06:36:53;117081264.00;390.27;65011112.00;116816680.00;389.39;64570984.00;;;;;18.10;1.00;;;;;;2261133;61;1917;-89
2021/05/22 06:39:26;595964.00;1.99;1027.25;79091.00;0.26;137.47;;;;;18.00;1.00;;;;;;2271565;61;1517;-89
2021/05/22 06:44:40;569777.00;1.90;982.06;11896.00;0.04;21.23;;;;;18.40;1.00;;;;;;2251764;61;1025;-87
2021/05/22 06:47:06;705116.00;2.35;1216.11;108328.00;0.36;187.94;;;;;18.70;1.00;;;;;;2251556;61;1145;-88
2021/05/22 06:49:36;702333.00;2.34;1211.28;42904.00;0.14;74.91;;;;;18.40;1.00;;;;;;2251314;61;1431;-89
2021/05/22 06:52:04;607339.00;2.02;1046.89;10537.00;0.04;18.88;;;;;17.90;1.00;;;;;;2244872;61;984;-89
2021/05/22 06:54:34;373331.00;1.24;643.96;0.00;0.00;0.62;;;;;18.00;1.00;;;;;;2248000;61;1158;-89
2021/05/22 06:57:12;298630.00;1.00;515.56;0.00;0.00;0.62;;;;;17.90;1.00;;;;;;2251494;61;1919;-89
2021/05/22 06:59:40;122874.00;0.41;213.04;0.00;0.00;0.62;;;;;17.10;1.00;;;;;;2251516;61;1289;-89
2021/05/22 07:02:11;89338.00;0.30;155.16;0.00;0.00;0.62;;;;;16.90;1.00;;;;;;2251608;61;1161;-86
2021/05/22 07:04:37;118816.00;0.40;206.04;0.00;0.00;0.62;;;;;17.10;1.00;;;;;;2251489;61;1680;-89
2021/05/22 07:07:05;94000.00;0.31;163.21;0.00;0.00;0.62;;;;;17.60;1.00;;;;;;2251046;61;1246;-88
2021/05/22 07:11:59;11168.00;0.04;19.97;0.00;0.00;0.62;;;;;17.80;1.00;;;;;;2275006;61;1389;-85
2021/05/22 07:14:26;9562.00;0.03;17.19;0.00;0.00;0.62;;;;;17.90;1.00;;;;;;2265554;61;988;-85
2021/05/22 07:36:36;220632.00;0.74;381.43;38316.00;0.13;66.97;;;;;19.30;1.00;;;;;;2274108;61;1974;-85
2021/05/22 08:06:16;69378.00;0.23;120.69;0.00;0.00;0.62;;;;;24.90;1.00;;;;;;2266129;61;1150;-85
2021/05/22 08:13:39;0.00;0.00;0.62;0.00;0.00;0.62;;;;;23.90;1.00;;;;;;2270820;61;980;-88
2021/05/22 08:28:27;51646.00;0.17;90.03;0.00;0.00;0.62;;;;;22.10;1.00;;;;;;2274259;61;1377;-84
2021/05/22 08:43:14;0.00;0.00;0.62;0.00;0.00;0.62;;;;;21.60;1.00;;;;;;2270100;61;1379;-84
2021/05/22 08:45:42;0.00;0.00;0.62;0.00;0.00;0.62;;;;;21.70;1.00;;;;;;2268689;61;1027;-84
2021/05/22 08:53:04;246567.00;0.82;426.05;22914.00;0.08;40.32;;;;;21.30;1.00;;;;;;2274253;61;1422;-86
2021/05/22 08:55:31;177766.00;0.59;307.64;0.00;0.00;0.62;;;;;21.50;1.00;;;;;;2262071;61;2002;-86
2021/05/22 09:17:48;66988.00;0.22;116.56;0.00;0.00;0.62;;;;;20.80;1.00;;;;;;2500367;55;3609;31
2021/05/22 09:27:42;39676.00;0.13;69.33;0.00;0.00;0.62;;;;;19.80;1.00;;;;;;2501448;40;3447;31
2021/05/22 09:35:06;0.00;0.00;0.62;0.00;0.00;0.62;;;;;20.10;1.00;;;;;;2504872;40;3410;31
2021/05/22 09:44:58;114128.00;0.38;197.95;0.00;0.00;0.62;;;;;20.10;1.00;;;;;;2504354;55;3581;31
2021/05/22 10:00:12;0.00;0.00;0.62;0.00;0.00;0.62;;;;;19.80;1.00;;;;;;2504440;55;3558;31
2021/05/22 10:12:36;301325.00;1.00;520.20;57989.00;0.19;101.00;;;;;19.50;1.00;;;;;;2501483;55;3692;31
2021/05/22 10:17:31;219981.00;0.73;380.31;0.00;0.00;0.62;;;;;19.80;1.00;;;;;;2274768;61;1892;-90
2021/05/22 10:22:26;11176.00;0.04;19.99;0.00;0.00;0.62;;;;;19.90;1.00;;;;;;2274819;61;1283;-88
2021/05/22 10:24:53;207076.00;0.69;358.10;0.00;0.00;0.62;;;;;20.00;1.00;;;;;;2503750;55;4052;31
2021/05/22 10:29:52;0.00;0.00;0.62;0.00;0.00;0.62;;;;;19.70;1.00;;;;;;2502079;40;3445;31
2021/05/22 10:32:21;121221.00;0.40;210.19;46397.00;0.15;80.95;;;;;19.40;1.00;;;;;;2505730;40;3858;31
2021/05/22 10:37:33;20836.00;0.07;36.72;0.00;0.00;0.62;;;;;20.80;1.00;;;;;;2502257;40;3507;31
2021/05/22 10:42:45;30935.00;0.10;54.20;0.00;0.00;0.62;;;;;20.20;1.00;;;;;;2506339;40;3474;31
2021/05/22 10:47:42;24792.00;0.08;43.57;0.00;0.00;0.62;;;;;20.40;1.00;;;;;;2510209;55;3667;31
2021/05/22 10:50:10;348325.00;1.16;600.98;0.00;0.00;0.62;;;;;20.20;1.00;;;;;;2500620;41;3897;31
2021/05/22 11:02:34;13901.00;0.05;24.71;0.00;0.00;0.62;;;;;20.30;1.00;;;;;;2509719;55;3683;31
2021/05/22 11:07:29;103959.00;0.35;180.41;18397.00;0.06;32.49;;;;;20.10;1.00;;;;;;2504979;40;3432;31
2021/05/22 11:12:46;32459.00;0.11;56.84;0.00;0.00;0.62;;;;;19.40;1.00;;;;;;2504775;55;3718;31
2021/05/22 11:25:05;117810152.00;392.70;66233960.00;0.00;0.00;0.62;;;;;19.20;1.00;;;;;;2505852;40;3432;31
2021/05/22 11:54:48;30145.00;0.10;52.83;0.00;0.00;0.62;;;;;20.60;1.00;;;;;;2275119;61;908;-90
2021/05/22 12:45:12;0.00;0.00;0.62;0.00;0.00;0.62;;;;;20.50;1.00;;;;;;2506556;55;3745;31
2021/05/22 13:02:38;83977.00;0.28;145.91;0.00;0.00;0.62;;;;;21.20;1.00;;;;;;2511876;40;3531;31
2021/05/22 13:17:48;300843.00;1.00;519.37;69952.00;0.23;121.68;;;;;21.70;1.00;;;;;;2270360;61;1937;-90
2021/05/22 14:13:35;172800.00;0.58;299.09;48688.00;0.16;84.92;;;;;21.30;1.00;;;;;;2275392;61;1306;-89
2021/05/22 14:21:05;0.00;0.00;0.62;0.00;0.00;0.62;;;;;21.60;1.00;;;;;;2501617;55;3630;31
2021/05/22 14:26:14;0.00;0.00;0.62;0.00;0.00;0.62;;;;;21.80;1.00;;;;;;2271177;61;912;-90
2021/05/22 14:46:03;269428.00;0.90;465.36;83876.00;0.28;145.73;;;;;21.70;1.00;;;;;;2500996;55;3656;31
2021/05/22 14:50:57;226780.00;0.76;392.01;73581.00;0.25;127.95;;;;;22.20;1.00;;;;;;2504932;55;3749;31
2021/05/22 14:53:24;436817.00;1.46;753.11;76268.00;0.25;132.59;;;;;22.50;1.00;;;;;;2504848;55;3713;31
2021/05/22 15:00:45;286227.00;0.95;494.24;75641.00;0.25;131.51;;;;;22.70;1.00;;;;;;2505619;55;3642;31
2021/05/22 15:08:08;897507.00;2.99;1551.74;83727.00;0.28;145.47;;;;;22.30;1.00;;;;;;2270224;61;1242;-88
2021/05/22 15:10:53;316937.00;1.06;547.03;78403.00;0.26;136.28;;;;;22.00;1.00;;;;;;2268425;61;1136;-90
2021/05/22 15:13:24;742426.00;2.47;1280.89;32355.00;0.11;56.66;;;;;21.80;1.00;;;;;;2268427;61;1844;-89
2021/05/22 15:15:53;749276.00;2.50;1292.80;35784.00;0.12;62.59;;;;;21.90;1.00;;;;;;2268329;61;1993;-88
2021/05/22 15:18:24;467244.00;1.56;805.45;0.00;0.00;0.62;;;;;21.70;1.00;;;;;;2268174;61;1048;-88
2021/05/22 15:20:59;917026.00;3.06;1586.04;53032.00;0.18;92.43;;;;;21.50;1.00;;;;;;2268116;61;1434;-88
2021/05/22 15:23:26;288976.00;0.96;498.97;53245.00;0.18;92.80;;;;;21.80;1.00;;;;;;2268341;61;1087;-89
2021/05/22 15:26:11;105594.00;0.35;183.23;0.00;0.00;0.62;;;;;21.80;1.00;;;;;;2268388;61;1396;-88
2021/05/22 15:28:49;85552.00;0.29;148.63;0.00;0.00;0.62;;;;;21.30;1.00;;;;;;2267940;61;1289;-89
2021/05/22 15:31:18;252277.00;0.84;435.87;17240.00;0.06;30.49;;;;;21.70;1.00;;;;;;2268306;61;1776;-88
2021/05/22 15:33:45;363633.00;1.21;627.29;23418.00;0.08;41.19;;;;;21.80;1.00;;;;;;2268288;61;1647;-88
2021/05/22 15:36:12;62851.00;0.21;109.41;0.00;0.00;0.62;;;;;21.70;1.00;;;;;;2268338;61;1981;-89
2021/05/22 15:38:41;47505.00;0.16;82.87;0.00;0.00;0.62;;;;;21.70;1.00;;;;;;2268349;61;1752;-89
2021/05/22 15:41:09;140957.00;0.47;244.22;0.00;0.00;0.62;;;;;21.60;1.00;;;;;;2268326;61;1967;-88
2021/05/22 15:43:44;140844.00;0.47;244.03;0.00;0.00;0.62;;;;;21.70;1.00;;;;;;2268301;61;1548;-88
2021/05/22 15:46:11;99817.00;0.33;173.26;7177.00;0.02;13.06;;;;;22.00;1.00;;;;;;2268317;61;1457;-88
2021/05/22 15:59:39;113408.00;0.38;196.71;46773.00;0.16;81.60;;;;;22.60;1.00;;;;;;2267649;61;783;-89
2021/05/22 16:02:10;0.00;0.00;0.62;0.00;0.00;0.62;;;;;22.10;1.00;;;;;;2267938;61;1753;-89
2021/05/22 16:04:47;31452.00;0.10;55.10;0.00;0.00;0.62;;;;;22.10;1.00;;;;;;2267922;61;989;-89
2021/05/22 16:07:14;43310.00;0.14;75.61;0.00;0.00;0.62;;;;;22.40;1.00;;;;;;2268126;61;1582;-89
2021/05/22 16:09:43;70714.00;0.24;122.99;0.00;0.00;0.62;;;;;22.20;1.00;;;;;;2268061;61;1068;-90
2021/05/22 16:12:10;28586.00;0.10;50.14;0.00;0.00;0.62;;;;;22.30;1.00;;;;;;2268186;61;1679;-88
2021/05/22 16:14:37;45923.00;0.15;80.13;0.00;0.00;0.62;;;;;21.90;1.00;;;;;;2268020;61;1572;-89
2021/05/22 16:17:04;3257.00;0.01;6.27;0.00;0.00;0.62;;;;;21.90;1.00;;;;;;2268045;61;1997;-89
2021/05/22 16:22:12;85475.00;0.28;148.49;0.00;0.00;0.62;;;;;21.50;1.00;;;;;;2259350;61;971;-88
2021/05/22 16:24:39;3267.00;0.01;6.28;0.00;0.00;0.62;;;;;21.10;1.00;;;;;;2259386;61;1644;-89
2021/05/22 16:27:09;0.00;0.00;0.62;0.00;0.00;0.62;;;;;21.30;1.00;;;;;;2259451;61;1299;-89
2021/05/22 16:29:37;9134.00;0.03;16.45;0.00;0.00;0.62;;;;;21.30;1.00;;;;;;2259259;61;1163;-88